Rechercher aéroport 
image banner adimage banner adimage banner ad
image banner ad

01CL - Swansboro Country

Situé à Placerville, United States

ICAO - 01CL, IATA -

Données fournies par Airmate  

Information générale

Coordonnées: N38°47'60" W120°44'4"
Élévation : 2594 feet MSL.
Variation magnétique : 16° East
Voir autres Aéroports à California

Données opérationnelles

Special qualification required
Heure actuelle UTC:
Heure actuelle locale:
Météo à : KPVF - Placerville ( 9 km )
METAR: KPVF 300135Z AUTO 11006KT 10SM CLR 33/08 A3001 RMK AO1
Voir NOTAMs / SUP AIP / TFR affectant cet aéroport [VIEW]
Fréquences de communication: [VIEW]

Pistes:

Identifiant RWYQFULongueur (ft)Largeur (ft)SurfaceLDA (ft)
09310050OTHER
27310050OTHER

Coordonnées de l'aéroport

Adresse: Placerville United States

Vue satellite de 01CL